Fascination — C6FM9 — position and weather

sailwx.info

Track history (hours):
 
Tides and Currents Weather Stations Pressure Air Temp Water Temp Dewpoint Dewpoint Depression Visibility Wind Speed Wind Dir Waves Ship Positions

Fascination

Operator: Carnival Cruise Lines

Last reported at 2017-Apr-24 23:05 UTC. Time now 2017-Apr-27 01:32 UTC.
Position N 18°06' W 064°45'.

Type: Ship. MMSI: 309682000.

Date/timePositionNaut miles runAvg speedWind from/ knotsBaromVisibWave heightAir tempDewpointWater temp
2017-Apr-24 23:05N 18°06' W 064°45'110.8
2017-Apr-24 23:00N 18°06' W 064°46'610.8
2017-Apr-24 22:27N 18°10' W 064°51'510.6
2017-Apr-24 22:00N 18°13' W 064°55'4 0.4
2017-Apr-24 10:15N 18°17' W 064°56'2 8.7
2017-Apr-24 10:00N 18°16' W 064°58'63 9.9
2017-Apr-24 03:37N 18°37' W 066°00'214.6
2017-Apr-24 03:30N 18°36' W 066°02'713.1
2017-Apr-24 02:59N 18°31' W 066°07'4 8.0
2017-Apr-24 02:30N 18°28' W 066°07'0 0.4
2017-Apr-24 01:55N 18°28' W 066°07'0 0.0
2017-Apr-24 01:28N 18°28' W 066°07'0 0.0
2017-Apr-24 00:58N 18°28' W 066°07'0 0.0
2017-Apr-24 00:28N 18°28' W 066°07'0 0.0
2017-Apr-23 23:57N 18°28' W 066°07'0 0.0
2017-Apr-23 23:24N 18°28' W 066°07'0 0.0
2017-Apr-23 22:57N 18°28' W 066°07'0 0.0
2017-Apr-23 22:30N 18°28' W 066°07'0 0.0
2017-Apr-23 21:57N 18°28' W 066°07'0 0.0
2017-Apr-23 21:29N 18°28' W 066°07'0 0.0
2017-Apr-23 20:59N 18°28' W 066°07'0 0.0
2017-Apr-23 20:29N 18°28' W 066°07'0 0.0
2017-Apr-23 19:59N 18°28' W 066°07'0 0.0
2017-Apr-23 19:29N 18°28' W 066°07'0 0.0
2017-Apr-23 18:58N 18°28' W 066°07'0 0.0
2017-Apr-23 18:28N 18°28' W 066°07'0 0.0
2017-Apr-23 17:58N 18°28' W 066°07'0 0.0
2017-Apr-23 17:28N 18°28' W 066°07'0 0.0
2017-Apr-23 17:00N 18°28' W 066°07'0 0.0
2017-Apr-23 16:30N 18°28' W 066°07'0 0.0
2017-Apr-23 16:00N 18°28' W 066°07'0 0.0
2017-Apr-23 15:27N 18°28' W 066°07'0 0.0
2017-Apr-23 14:54N 18°28' W 066°07'0 0.0
2017-Apr-23 13:59N 18°28' W 066°07'0 0.0
2017-Apr-23 13:23N 18°28' W 066°07'0 0.0
2017-Apr-23 12:56N 18°28' W 066°07'0 0.0
2017-Apr-23 12:29N 18°28' W 066°07'0 0.0
2017-Apr-23 11:55N 18°28' W 066°07'0 0.0
2017-Apr-23 11:28N 18°28' W 066°07'0 0.0
2017-Apr-23 10:55N 18°28' W 066°07'0 0.1
2017-Apr-23 10:30N 18°28' W 066°07'3 5.4
2017-Apr-23 10:00N 18°30' W 066°07'5 9.5
2017-Apr-23 09:30N 18°34' W 066°04'711.8
2017-Apr-23 08:54N 18°38' W 065°58'6113.3
2017-Apr-23 04:18N 18°11' W 065°00'516.0
2017-Apr-23 04:00N 18°10' W 064°55'1216.0
2017-Apr-23 03:13N 18°07' W 064°43'6115.8
2017-Apr-22 23:19N 18°02' W 063°38'815.7
2017-Apr-22 22:49N 18°02' W 063°30'515.6
2017-Apr-22 22:30N 18°01' W 063°25'815.9
2017-Apr-22 22:00N 18°01' W 063°17'815.8
2017-Apr-22 21:29N 18°01' W 063°08'5 0.5
2017-Apr-22 10:52N 18°01' W 063°03'0 0.9
2017-Apr-22 10:26N 18°00' W 063°03'3 5.6
2017-Apr-22 09:58N 18°00' W 063°06'4 6.7
2017-Apr-22 09:25N 18°01' W 063°10'3 6.9
2017-Apr-22 09:00N 18°01' W 063°13'3 6.7
2017-Apr-22 08:29N 18°02' W 063°16'3 6.6
2017-Apr-22 08:00N 18°03' W 063°19'4 7.2
2017-Apr-22 07:28N 18°04' W 063°23'4 8.8
2017-Apr-22 07:00N 18°06' W 063°27'5 8.7
2017-Apr-22 06:27N 18°07' W 063°32'4 8.6
2017-Apr-22 06:00N 18°09' W 063°36'4 7.3
2017-Apr-22 05:29N 18°08' W 063°40'5 9.0
2017-Apr-22 04:58N 18°03' W 063°40'8 8.1
2017-Apr-22 03:57N 17°59' W 063°32'510.4
2017-Apr-22 03:28N 17°59' W 063°27'510.1
2017-Apr-22 02:57N 17°57' W 063°22'510.7
2017-Apr-22 02:29N 17°53' W 063°18'510.6
2017-Apr-22 02:00N 17°50' W 063°14'510.3
2017-Apr-22 01:29N 17°46' W 063°11'5 9.7
2017-Apr-22 00:58N 17°42' W 063°08'510.2
2017-Apr-22 00:30N 17°37' W 063°07'510.4
2017-Apr-22 00:00N 17°32' W 063°06'58 3.9
2017-Apr-21 09:00N 16°44' W 062°32'815.8
2017-Apr-21 08:30N 16°37' W 062°28'815.5
2017-Apr-21 07:58N 16°29' W 062°25'  
2017-Apr-17 22:46N 18°06' W 064°46'310.6
2017-Apr-17 22:29N 18°08' W 064°48'510.6
2017-Apr-17 22:00N 18°11' W 064°53'611.3
2017-Apr-17 21:28N 18°17' W 064°55'1 0.1
2017-Apr-17 10:03N 18°17' W 064°56'0 7.5
2017-Apr-17 10:00N 18°16' W 064°57'64 9.8
2017-Apr-17 03:29N 18°37' W 066°00'612.4
2017-Apr-17 03:00N 18°33' W 066°05'5 9.7
2017-Apr-17 02:27N 18°28' W 066°08'1 1.9
2017-Apr-17 01:55N 18°28' W 066°07'0 0.0
2017-Apr-17 01:28N 18°28' W 066°07'0 0.0
2017-Apr-17 00:57N 18°28' W 066°07'0 0.0
2017-Apr-17 00:24N 18°28' W 066°07'0 0.0
2017-Apr-16 23:57N 18°28' W 066°07'0 0.0
2017-Apr-16 23:30N 18°28' W 066°07'0 0.0
2017-Apr-16 22:54N 18°28' W 066°07'0 0.0
2017-Apr-16 22:29N 18°28' W 066°07'0 0.0
2017-Apr-16 21:59N 18°28' W 066°07'0 0.0
2017-Apr-16 21:29N 18°28' W 066°07'0 0.0
2017-Apr-16 20:59N 18°28' W 066°07'0 0.0
2017-Apr-16 20:28N 18°28' W 066°07'0 0.0
2017-Apr-16 19:58N 18°28' W 066°07'0 0.0
2017-Apr-16 19:19N 18°28' W 066°07'0 0.0
2017-Apr-16 18:52N 18°28' W 066°07'0 0.0
2017-Apr-16 18:28N 18°28' W 066°07'0 0.0
2017-Apr-16 18:00N 18°28' W 066°07'0 0.0
2017-Apr-16 17:18N 18°28' W 066°07'0 0.0
2017-Apr-16 16:57N 18°28' W 066°07'0 0.0
2017-Apr-16 16:12N 18°28' W 066°07'0 0.0
2017-Apr-16 15:53N 18°28' W 066°07'0 0.0
2017-Apr-16 15:23N 18°28' W 066°07'0 0.0
2017-Apr-16 14:59N 18°28' W 066°07'0 0.0
2017-Apr-16 13:59N 18°28' W 066°07'0 0.0
2017-Apr-16 12:58N 18°28' W 066°07'0 0.0
2017-Apr-16 12:28N 18°28' W 066°07'0 0.0
2017-Apr-16 11:46N 18°28' W 066°07'0 0.0
2017-Apr-16 11:28N 18°28' W 066°07'0 0.0
2017-Apr-16 10:54N 18°28' W 066°07'0 0.3
2017-Apr-16 10:25N 18°28' W 066°07'9 8.4
2017-Apr-16 09:20N 18°35' W 066°02'6412.3
2017-Apr-16 04:08N 18°11' W 064°59'216.0
2017-Apr-16 03:59N 18°10' W 064°57'7716.1
2017-Apr-15 23:12N 18°02' W 063°37'315.3
2017-Apr-15 22:59N 18°02' W 063°33'815.8
2017-Apr-15 22:30N 18°01' W 063°25'815.8
2017-Apr-15 21:59N 18°01' W 063°17'915.7
2017-Apr-15 21:23N 18°00' W 063°07'4 1.4
2017-Apr-15 18:45N 18°01' W 063°03'0 0.0
2017-Apr-15 18:27N 18°01' W 063°03'0 0.0
2017-Apr-15 17:54N 18°01' W 063°03'0 0.0
2017-Apr-15 10:48N 18°01' W 063°03'0 0.8
2017-Apr-15 10:25N 18°00' W 063°03'2 4.9
2017-Apr-15 09:58N 18°00' W 063°05'4 8.5
2017-Apr-15 09:26N 18°01' W 063°10'4 8.8
2017-Apr-15 08:59N 18°01' W 063°14'5 9.2
2017-Apr-15 08:29N 18°03' W 063°19'5 9.0
2017-Apr-15 07:59N 18°04' W 063°23'14 9.5
2017-Apr-15 06:32N 18°09' W 063°37'0 9.4
2017-Apr-15 06:29N 18°09' W 063°37'5 8.6
2017-Apr-15 05:57N 18°06' W 063°40'4 9.2
2017-Apr-15 05:28N 18°01' W 063°41'12 8.6
2017-Apr-15 04:06N 17°59' W 063°29'1 9.7
2017-Apr-15 04:00N 17°59' W 063°28'6 9.4
2017-Apr-15 03:23N 17°57' W 063°22'510.1
2017-Apr-15 02:55N 17°54' W 063°19'510.3
2017-Apr-15 02:29N 17°51' W 063°15'510.2
2017-Apr-15 02:01N 17°47' W 063°12'5 9.9
2017-Apr-15 01:28N 17°43' W 063°08'5 9.8
2017-Apr-15 01:00N 17°39' W 063°07'5 9.9
2017-Apr-15 00:30N 17°34' W 063°07'  
Track history (hours):
 
Tides and Currents Weather Stations Pressure Air Temp Water Temp Dewpoint Dewpoint Depression Visibility Wind Speed Wind Dir Waves Ship Positions

Fascination

Operator: Carnival Cruise Lines

Last reported at 2017-Apr-24 23:05 UTC. Time now 2017-Apr-27 01:32 UTC.
Position N 18°06' W 064°45'.

Type: Ship. MMSI: 309682000.

Date/timePositionNaut miles runAvg speedWind from/ knotsBaromVisibWave heightAir tempDewpointWater temp
2017-Apr-24 23:05N 18°06' W 064°45'110.8
2017-Apr-24 23:00N 18°06' W 064°46'610.8
2017-Apr-24 22:27N 18°10' W 064°51'510.6
2017-Apr-24 22:00N 18°13' W 064°55'4 0.4
2017-Apr-24 10:15N 18°17' W 064°56'2 8.7
2017-Apr-24 10:00N 18°16' W 064°58'63 9.9
2017-Apr-24 03:37N 18°37' W 066°00'214.6
2017-Apr-24 03:30N 18°36' W 066°02'713.1
2017-Apr-24 02:59N 18°31' W 066°07'4 8.0
2017-Apr-24 02:30N 18°28' W 066°07'0 0.4
2017-Apr-24 01:55N 18°28' W 066°07'0 0.0
2017-Apr-24 01:28N 18°28' W 066°07'0 0.0
2017-Apr-24 00:58N 18°28' W 066°07'0 0.0
2017-Apr-24 00:28N 18°28' W 066°07'0 0.0
2017-Apr-23 23:57N 18°28' W 066°07'0 0.0
2017-Apr-23 23:24N 18°28' W 066°07'0 0.0
2017-Apr-23 22:57N 18°28' W 066°07'0 0.0
2017-Apr-23 22:30N 18°28' W 066°07'0 0.0
2017-Apr-23 21:57N 18°28' W 066°07'0 0.0
2017-Apr-23 21:29N 18°28' W 066°07'0 0.0
2017-Apr-23 20:59N 18°28' W 066°07'0 0.0
2017-Apr-23 20:29N 18°28' W 066°07'0 0.0
2017-Apr-23 19:59N 18°28' W 066°07'0 0.0
2017-Apr-23 19:29N 18°28' W 066°07'0 0.0
2017-Apr-23 18:58N 18°28' W 066°07'0 0.0
2017-Apr-23 18:28N 18°28' W 066°07'0 0.0
2017-Apr-23 17:58N 18°28' W 066°07'0 0.0
2017-Apr-23 17:28N 18°28' W 066°07'0 0.0
2017-Apr-23 17:00N 18°28' W 066°07'0 0.0
2017-Apr-23 16:30N 18°28' W 066°07'0 0.0
2017-Apr-23 16:00N 18°28' W 066°07'0 0.0
2017-Apr-23 15:27N 18°28' W 066°07'0 0.0
2017-Apr-23 14:54N 18°28' W 066°07'0 0.0
2017-Apr-23 13:59N 18°28' W 066°07'0 0.0
2017-Apr-23 13:23N 18°28' W 066°07'0 0.0
2017-Apr-23 12:56N 18°28' W 066°07'0 0.0
2017-Apr-23 12:29N 18°28' W 066°07'0 0.0
2017-Apr-23 11:55N 18°28' W 066°07'0 0.0
2017-Apr-23 11:28N 18°28' W 066°07'0 0.0
2017-Apr-23 10:55N 18°28' W 066°07'0 0.1
2017-Apr-23 10:30N 18°28' W 066°07'3 5.4
2017-Apr-23 10:00N 18°30' W 066°07'5 9.5
2017-Apr-23 09:30N 18°34' W 066°04'711.8
2017-Apr-23 08:54N 18°38' W 065°58'6113.3
2017-Apr-23 04:18N 18°11' W 065°00'516.0
2017-Apr-23 04:00N 18°10' W 064°55'1216.0
2017-Apr-23 03:13N 18°07' W 064°43'6115.8
2017-Apr-22 23:19N 18°02' W 063°38'815.7
2017-Apr-22 22:49N 18°02' W 063°30'515.6
2017-Apr-22 22:30N 18°01' W 063°25'815.9
2017-Apr-22 22:00N 18°01' W 063°17'815.8
2017-Apr-22 21:29N 18°01' W 063°08'5 0.5
2017-Apr-22 10:52N 18°01' W 063°03'0 0.9
2017-Apr-22 10:26N 18°00' W 063°03'3 5.6
2017-Apr-22 09:58N 18°00' W 063°06'4 6.7
2017-Apr-22 09:25N 18°01' W 063°10'3 6.9
2017-Apr-22 09:00N 18°01' W 063°13'3 6.7
2017-Apr-22 08:29N 18°02' W 063°16'3 6.6
2017-Apr-22 08:00N 18°03' W 063°19'4 7.2
2017-Apr-22 07:28N 18°04' W 063°23'4 8.8
2017-Apr-22 07:00N 18°06' W 063°27'5 8.7
2017-Apr-22 06:27N 18°07' W 063°32'4 8.6
2017-Apr-22 06:00N 18°09' W 063°36'4 7.3
2017-Apr-22 05:29N 18°08' W 063°40'5 9.0
2017-Apr-22 04:58N 18°03' W 063°40'8 8.1
2017-Apr-22 03:57N 17°59' W 063°32'510.4
2017-Apr-22 03:28N 17°59' W 063°27'510.1
2017-Apr-22 02:57N 17°57' W 063°22'510.7
2017-Apr-22 02:29N 17°53' W 063°18'510.6
2017-Apr-22 02:00N 17°50' W 063°14'510.3
2017-Apr-22 01:29N 17°46' W 063°11'5 9.7
2017-Apr-22 00:58N 17°42' W 063°08'510.2
2017-Apr-22 00:30N 17°37' W 063°07'510.4
2017-Apr-22 00:00N 17°32' W 063°06'58 3.9
2017-Apr-21 09:00N 16°44' W 062°32'815.8
2017-Apr-21 08:30N 16°37' W 062°28'815.5
2017-Apr-21 07:58N 16°29' W 062°25'  
2017-Apr-17 22:46N 18°06' W 064°46'310.6
2017-Apr-17 22:29N 18°08' W 064°48'510.6
2017-Apr-17 22:00N 18°11' W 064°53'611.3
2017-Apr-17 21:28N 18°17' W 064°55'1 0.1
2017-Apr-17 10:03N 18°17' W 064°56'0 7.5
2017-Apr-17 10:00N 18°16' W 064°57'64 9.8
2017-Apr-17 03:29N 18°37' W 066°00'612.4
2017-Apr-17 03:00N 18°33' W 066°05'5 9.7
2017-Apr-17 02:27N 18°28' W 066°08'1 1.9
2017-Apr-17 01:55N 18°28' W 066°07'0 0.0
2017-Apr-17 01:28N 18°28' W 066°07'0 0.0
2017-Apr-17 00:57N 18°28' W 066°07'0 0.0
2017-Apr-17 00:24N 18°28' W 066°07'0 0.0
2017-Apr-16 23:57N 18°28' W 066°07'0 0.0
2017-Apr-16 23:30N 18°28' W 066°07'0 0.0
2017-Apr-16 22:54N 18°28' W 066°07'0 0.0
2017-Apr-16 22:29N 18°28' W 066°07'0 0.0
2017-Apr-16 21:59N 18°28' W 066°07'0 0.0
2017-Apr-16 21:29N 18°28' W 066°07'0 0.0
2017-Apr-16 20:59N 18°28' W 066°07'0 0.0
2017-Apr-16 20:28N 18°28' W 066°07'0 0.0
2017-Apr-16 19:58N 18°28' W 066°07'0 0.0
2017-Apr-16 19:19N 18°28' W 066°07'0 0.0
2017-Apr-16 18:52N 18°28' W 066°07'0 0.0
2017-Apr-16 18:28N 18°28' W 066°07'0 0.0
2017-Apr-16 18:00N 18°28' W 066°07'0 0.0
2017-Apr-16 17:18N 18°28' W 066°07'0 0.0
2017-Apr-16 16:57N 18°28' W 066°07'0 0.0
2017-Apr-16 16:12N 18°28' W 066°07'0 0.0
2017-Apr-16 15:53N 18°28' W 066°07'0 0.0
2017-Apr-16 15:23N 18°28' W 066°07'0 0.0
2017-Apr-16 14:59N 18°28' W 066°07'0 0.0
2017-Apr-16 13:59N 18°28' W 066°07'0 0.0
2017-Apr-16 12:58N 18°28' W 066°07'0 0.0
2017-Apr-16 12:28N 18°28' W 066°07'0 0.0
2017-Apr-16 11:46N 18°28' W 066°07'0 0.0
2017-Apr-16 11:28N 18°28' W 066°07'0 0.0
2017-Apr-16 10:54N 18°28' W 066°07'0 0.3
2017-Apr-16 10:25N 18°28' W 066°07'9 8.4
2017-Apr-16 09:20N 18°35' W 066°02'6412.3
2017-Apr-16 04:08N 18°11' W 064°59'216.0
2017-Apr-16 03:59N 18°10' W 064°57'7716.1
2017-Apr-15 23:12N 18°02' W 063°37'315.3
2017-Apr-15 22:59N 18°02' W 063°33'815.8
2017-Apr-15 22:30N 18°01' W 063°25'815.8
2017-Apr-15 21:59N 18°01' W 063°17'915.7
2017-Apr-15 21:23N 18°00' W 063°07'4 1.4
2017-Apr-15 18:45N 18°01' W 063°03'0 0.0
2017-Apr-15 18:27N 18°01' W 063°03'0 0.0
2017-Apr-15 17:54N 18°01' W 063°03'0 0.0
2017-Apr-15 10:48N 18°01' W 063°03'0 0.8
2017-Apr-15 10:25N 18°00' W 063°03'2 4.9
2017-Apr-15 09:58N 18°00' W 063°05'4 8.5
2017-Apr-15 09:26N 18°01' W 063°10'4 8.8
2017-Apr-15 08:59N 18°01' W 063°14'5 9.2
2017-Apr-15 08:29N 18°03' W 063°19'5 9.0
2017-Apr-15 07:59N 18°04' W 063°23'14 9.5
2017-Apr-15 06:32N 18°09' W 063°37'0 9.4
2017-Apr-15 06:29N 18°09' W 063°37'5 8.6
2017-Apr-15 05:57N 18°06' W 063°40'4 9.2
2017-Apr-15 05:28N 18°01' W 063°41'12 8.6
2017-Apr-15 04:06N 17°59' W 063°29'1 9.7
2017-Apr-15 04:00N 17°59' W 063°28'6 9.4
2017-Apr-15 03:23N 17°57' W 063°22'510.1
2017-Apr-15 02:55N 17°54' W 063°19'510.3
2017-Apr-15 02:29N 17°51' W 063°15'510.2
2017-Apr-15 02:01N 17°47' W 063°12'5 9.9
2017-Apr-15 01:28N 17°43' W 063°08'5 9.8
2017-Apr-15 01:00N 17°39' W 063°07'5 9.9
2017-Apr-15 00:30N 17°34' W 063°07'  

Dump ship's entire track history